logo dgac
Lunes 20 de Mayo del 2019
Buscar por aerodromo o helipuerto
Ingrese nombre de aeródromo, localidad o designador OACI:
TAF: TAF SCSN 201020Z 2012/2024 19004KT CAVOK TX14/2019Z TN03/2012Z TEMPO 2012/2015 5000 BR SCT005 BKN010 BECMG 2016/2018 26008KT FEW020
TAF del 20/05/2019 a las 10:20 UTC
Período de validez: desde el 20 a las 12:00 UTC hasta el 20 a las 24:00 UTC
Viento: dirección 190 grados, velocidad 4 nudos
Visibilidad: 10 km o más,
    sin nubes bajo los 5.000 pies o bajo del MSA (Mínimo de Seguridad del Aeródromo),
    sin cumulonimbus, y sin fenómenos de tiempo significativo en el aeródromo o alrededores
Temperatura máxima: 14ºC el 20 a las 19:00 UTC
Temperatura mínima: 3ºC el 20 a las 12:00 UTC
Se espera en forma temporal entre las 12:00 UTC del 20 y las 15:00 UTC del 20:
Visibilidad: 5000 metros
Neblina
Nubes: Nubosidad parcial a 500 pies sobre el nivel del aeródromo
Nubes: Nublado a 1000 pies sobre el nivel del aeródromo
Se espera un cambio entre las 16:00 UTC del 20 y las 18:00 UTC del 20, :
Viento: dirección 260 grados, velocidad 8 nudos
Nubes: Escasa nubosidad a 2000 pies sobre el nivel del aeródromo